sensor_id;sensor_type;location;lat;lon;timestamp;pressure;altitude;pressure_sealevel;temperature
10598;BMP180;5346;48.766;8.674;2023-03-01T00:01:32;94519.00;;;-4.20
10598;BMP180;5346;48.766;8.674;2023-03-01T00:03:59;94492.00;;;-4.30
10598;BMP180;5346;48.766;8.674;2023-03-01T00:06:27;94497.00;;;-4.30
10598;BMP180;5346;48.766;8.674;2023-03-01T00:09:02;94504.00;;;-4.50
10598;BMP180;5346;48.766;8.674;2023-03-01T00:11:32;94477.00;;;-4.60
10598;BMP180;5346;48.766;8.674;2023-03-01T00:14:06;94532.00;;;-4.30
10598;BMP180;5346;48.766;8.674;2023-03-01T00:16:42;94543.00;;;-4.20
10598;BMP180;5346;48.766;8.674;2023-03-01T00:19:19;94481.00;;;-4.20
10598;BMP180;5346;48.766;8.674;2023-03-01T00:21:52;94423.00;;;-4.30
10598;BMP180;5346;48.766;8.674;2023-03-01T00:24:25;94498.00;;;-4.30
10598;BMP180;5346;48.766;8.674;2023-03-01T00:26:56;94532.00;;;-4.20
10598;BMP180;5346;48.766;8.674;2023-03-01T00:29:29;94481.00;;;-4.30
10598;BMP180;5346;48.766;8.674;2023-03-01T00:31:56;94478.00;;;-4.50
10598;BMP180;5346;48.766;8.674;2023-03-01T00:34:29;94467.00;;;-4.50
10598;BMP180;5346;48.766;8.674;2023-03-01T00:36:56;94480.00;;;-4.70
10598;BMP180;5346;48.766;8.674;2023-03-01T00:39:38;94517.00;;;-4.80
10598;BMP180;5346;48.766;8.674;2023-03-01T00:42:08;94460.00;;;-4.80
10598;BMP180;5346;48.766;8.674;2023-03-01T00:44:41;94426.00;;;-4.70
10598;BMP180;5346;48.766;8.674;2023-03-01T00:47:22;94464.00;;;-4.70
10598;BMP180;5346;48.766;8.674;2023-03-01T00:50:02;94497.00;;;-4.80
10598;BMP180;5346;48.766;8.674;2023-03-01T00:52:36;94457.00;;;-4.80
10598;BMP180;5346;48.766;8.674;2023-03-01T00:55:04;94499.00;;;-4.70
10598;BMP180;5346;48.766;8.674;2023-03-01T00:57:38;94511.00;;;-4.70
10598;BMP180;5346;48.766;8.674;2023-03-01T01:00:12;94515.00;;;-4.80
10598;BMP180;5346;48.766;8.674;2023-03-01T01:02:46;94495.00;;;-5.00
10598;BMP180;5346;48.766;8.674;2023-03-01T01:05:14;94474.00;;;-5.10
10598;BMP180;5346;48.766;8.674;2023-03-01T01:07:47;94477.00;;;-5.20
10598;BMP180;5346;48.766;8.674;2023-03-01T01:10:15;94508.00;;;-4.80
10598;BMP180;5346;48.766;8.674;2023-03-01T01:12:51;94502.00;;;-4.90
10598;BMP180;5346;48.766;8.674;2023-03-01T01:15:25;94452.00;;;-4.70
10598;BMP180;5346;48.766;8.674;2023-03-01T01:17:52;94475.00;;;-4.70
10598;BMP180;5346;48.766;8.674;2023-03-01T01:20:25;94466.00;;;-4.90
10598;BMP180;5346;48.766;8.674;2023-03-01T01:22:52;94500.00;;;-4.90
10598;BMP180;5346;48.766;8.674;2023-03-01T01:25:19;94442.00;;;-5.10
10598;BMP180;5346;48.766;8.674;2023-03-01T01:27:53;94455.00;;;-5.20
10598;BMP180;5346;48.766;8.674;2023-03-01T01:30:26;94477.00;;;-5.20
10598;BMP180;5346;48.766;8.674;2023-03-01T01:32:59;94433.00;;;-5.30
10598;BMP180;5346;48.766;8.674;2023-03-01T01:35:32;94462.00;;;-5.10
10598;BMP180;5346;48.766;8.674;2023-03-01T01:38:05;94421.00;;;-5.00
10598;BMP180;5346;48.766;8.674;2023-03-01T01:40:32;94409.00;;;-5.10
10598;BMP180;5346;48.766;8.674;2023-03-01T01:43:27;94482.00;;;-4.90
10598;BMP180;5346;48.766;8.674;2023-03-01T01:46:03;94473.00;;;-5.00
10598;BMP180;5346;48.766;8.674;2023-03-01T01:48:50;94476.00;;;-5.30
10598;BMP180;5346;48.766;8.674;2023-03-01T01:51:35;94458.00;;;-5.00
10598;BMP180;5346;48.766;8.674;2023-03-01T01:54:25;94389.00;;;-5.10
10598;BMP180;5346;48.766;8.674;2023-03-01T01:57:07;94426.00;;;-5.00
10598;BMP180;5346;48.766;8.674;2023-03-01T01:59:49;94408.00;;;-4.90
10598;BMP180;5346;48.766;8.674;2023-03-01T02:02:25;94409.00;;;-5.00
10598;BMP180;5346;48.766;8.674;2023-03-01T02:08:25;94459.00;;;-5.10
10598;BMP180;5346;48.766;8.674;2023-03-01T02:11:03;94387.00;;;-5.10
10598;BMP180;5346;48.766;8.674;2023-03-01T02:13:37;94453.00;;;-5.10
10598;BMP180;5346;48.766;8.674;2023-03-01T02:16:09;94457.00;;;-5.40
10598;BMP180;5346;48.766;8.674;2023-03-01T02:18:44;94391.00;;;-5.20
10598;BMP180;5346;48.766;8.674;2023-03-01T02:21:47;94457.00;;;-5.40
10598;BMP180;5346;48.766;8.674;2023-03-01T02:24:56;94352.00;;;-5.30
10598;BMP180;5346;48.766;8.674;2023-03-01T02:30:53;94435.00;;;-5.10
10598;BMP180;5346;48.766;8.674;2023-03-01T02:33:46;94400.00;;;-5.20
10598;BMP180;5346;48.766;8.674;2023-03-01T02:36:29;94423.00;;;-5.20
10598;BMP180;5346;48.766;8.674;2023-03-01T02:39:07;94364.00;;;-5.20
10598;BMP180;5346;48.766;8.674;2023-03-01T02:41:51;94424.00;;;-5.30
10598;BMP180;5346;48.766;8.674;2023-03-01T02:44:26;94341.00;;;-5.00
10598;BMP180;5346;48.766;8.674;2023-03-01T02:47:02;94425.00;;;-5.20
10598;BMP180;5346;48.766;8.674;2023-03-01T02:49:37;94387.00;;;-5.10
10598;BMP180;5346;48.766;8.674;2023-03-01T02:52:41;94388.00;;;-5.30
10598;BMP180;5346;48.766;8.674;2023-03-01T02:55:18;94399.00;;;-5.30
10598;BMP180;5346;48.766;8.674;2023-03-01T02:57:47;94358.00;;;-5.40
10598;BMP180;5346;48.766;8.674;2023-03-01T03:00:42;94301.00;;;-5.40
10598;BMP180;5346;48.766;8.674;2023-03-01T03:03:21;94420.00;;;-5.30
10598;BMP180;5346;48.766;8.674;2023-03-01T03:05:55;94407.00;;;-5.40
10598;BMP180;5346;48.766;8.674;2023-03-01T03:08:28;94378.00;;;-5.50
10598;BMP180;5346;48.766;8.674;2023-03-01T03:10:55;94337.00;;;-5.70
10598;BMP180;5346;48.766;8.674;2023-03-01T03:13:29;94330.00;;;-5.60
10598;BMP180;5346;48.766;8.674;2023-03-01T03:15:57;94396.00;;;-5.40
10598;BMP180;5346;48.766;8.674;2023-03-01T03:18:25;94301.00;;;-5.30
10598;BMP180;5346;48.766;8.674;2023-03-01T03:21:01;94357.00;;;-5.20
10598;BMP180;5346;48.766;8.674;2023-03-01T03:23:28;94373.00;;;-5.10
10598;BMP180;5346;48.766;8.674;2023-03-01T03:26:04;94386.00;;;-5.00
10598;BMP180;5346;48.766;8.674;2023-03-01T03:28:33;94348.00;;;-4.90
10598;BMP180;5346;48.766;8.674;2023-03-01T03:31:07;94358.00;;;-4.70
10598;BMP180;5346;48.766;8.674;2023-03-01T03:33:41;94325.00;;;-4.60
10598;BMP180;5346;48.766;8.674;2023-03-01T03:36:22;94404.00;;;-4.40
10598;BMP180;5346;48.766;8.674;2023-03-01T03:38:56;94344.00;;;-4.40
10598;BMP180;5346;48.766;8.674;2023-03-01T03:41:30;94341.00;;;-4.30
10598;BMP180;5346;48.766;8.674;2023-03-01T03:44:03;94352.00;;;-4.20
10598;BMP180;5346;48.766;8.674;2023-03-01T03:46:37;94378.00;;;-4.10
10598;BMP180;5346;48.766;8.674;2023-03-01T03:49:17;94326.00;;;-4.00
10598;BMP180;5346;48.766;8.674;2023-03-01T03:51:45;94334.00;;;-4.20
10598;BMP180;5346;48.766;8.674;2023-03-01T03:54:19;94355.00;;;-4.00
10598;BMP180;5346;48.766;8.674;2023-03-01T03:56:46;94342.00;;;-3.90
10598;BMP180;5346;48.766;8.674;2023-03-01T03:59:20;94312.00;;;-3.90
10598;BMP180;5346;48.766;8.674;2023-03-01T04:01:54;94346.00;;;-3.80
10598;BMP180;5346;48.766;8.674;2023-03-01T04:04:27;94340.00;;;-3.80
10598;BMP180;5346;48.766;8.674;2023-03-01T04:06:54;94328.00;;;-3.80
10598;BMP180;5346;48.766;8.674;2023-03-01T04:09:21;94333.00;;;-3.70
10598;BMP180;5346;48.766;8.674;2023-03-01T04:11:54;94345.00;;;-3.80
10598;BMP180;5346;48.766;8.674;2023-03-01T04:14:21;94338.00;;;-3.80
10598;BMP180;5346;48.766;8.674;2023-03-01T04:16:55;94343.00;;;-3.60
10598;BMP180;5346;48.766;8.674;2023-03-01T04:19:22;94354.00;;;-3.70
10598;BMP180;5346;48.766;8.674;2023-03-01T04:21:56;94324.00;;;-3.50
10598;BMP180;5346;48.766;8.674;2023-03-01T04:24:23;94356.00;;;-3.60
10598;BMP180;5346;48.766;8.674;2023-03-01T04:26:57;94334.00;;;-3.50
10598;BMP180;5346;48.766;8.674;2023-03-01T04:29:31;94321.00;;;-3.60
10598;BMP180;5346;48.766;8.674;2023-03-01T04:31:58;94357.00;;;-3.70
10598;BMP180;5346;48.766;8.674;2023-03-01T04:34:32;94324.00;;;-3.70
10598;BMP180;5346;48.766;8.674;2023-03-01T04:36:59;94317.00;;;-3.70
10598;BMP180;5346;48.766;8.674;2023-03-01T04:39:32;94299.00;;;-3.60
10598;BMP180;5346;48.766;8.674;2023-03-01T04:42:06;94340.00;;;-3.60
10598;BMP180;5346;48.766;8.674;2023-03-01T04:44:39;94322.00;;;-3.60
10598;BMP180;5346;48.766;8.674;2023-03-01T04:47:13;94357.00;;;-3.60
10598;BMP180;5346;48.766;8.674;2023-03-01T04:49:46;94319.00;;;-3.60
10598;BMP180;5346;48.766;8.674;2023-03-01T04:52:19;94339.00;;;-3.50
10598;BMP180;5346;48.766;8.674;2023-03-01T04:54:53;94320.00;;;-3.40
10598;BMP180;5346;48.766;8.674;2023-03-01T04:57:20;94355.00;;;-3.40
10598;BMP180;5346;48.766;8.674;2023-03-01T04:59:53;94298.00;;;-3.50
10598;BMP180;5346;48.766;8.674;2023-03-01T05:02:20;94302.00;;;-3.30
10598;BMP180;5346;48.766;8.674;2023-03-01T05:04:53;94350.00;;;-3.40
10598;BMP180;5346;48.766;8.674;2023-03-01T05:07:30;94337.00;;;-3.40
10598;BMP180;5346;48.766;8.674;2023-03-01T05:10:03;94322.00;;;-3.30
10598;BMP180;5346;48.766;8.674;2023-03-01T05:12:39;94343.00;;;-3.40
10598;BMP180;5346;48.766;8.674;2023-03-01T05:15:12;94270.00;;;-3.40
10598;BMP180;5346;48.766;8.674;2023-03-01T05:17:46;94323.00;;;-3.40
10598;BMP180;5346;48.766;8.674;2023-03-01T05:20:19;94344.00;;;-3.40
10598;BMP180;5346;48.766;8.674;2023-03-01T05:22:59;94349.00;;;-3.30
10598;BMP180;5346;48.766;8.674;2023-03-01T05:25:34;94350.00;;;-3.30
10598;BMP180;5346;48.766;8.674;2023-03-01T05:28:11;94336.00;;;-3.30
10598;BMP180;5346;48.766;8.674;2023-03-01T05:30:40;94343.00;;;-3.20
10598;BMP180;5346;48.766;8.674;2023-03-01T05:33:14;94341.00;;;-3.30
10598;BMP180;5346;48.766;8.674;2023-03-01T05:35:43;94346.00;;;-3.20
10598;BMP180;5346;48.766;8.674;2023-03-01T05:38:18;94299.00;;;-3.20
10598;BMP180;5346;48.766;8.674;2023-03-01T05:40:51;94315.00;;;-3.30
10598;BMP180;5346;48.766;8.674;2023-03-01T05:43:25;94320.00;;;-3.20
10598;BMP180;5346;48.766;8.674;2023-03-01T05:45:52;94308.00;;;-3.00
10598;BMP180;5346;48.766;8.674;2023-03-01T05:48:26;94272.00;;;-3.10
10598;BMP180;5346;48.766;8.674;2023-03-01T05:51:00;94294.00;;;-3.00
10598;BMP180;5346;48.766;8.674;2023-03-01T05:53:34;94295.00;;;-2.90
10598;BMP180;5346;48.766;8.674;2023-03-01T05:56:08;94322.00;;;-2.90
10598;BMP180;5346;48.766;8.674;2023-03-01T05:58:36;94323.00;;;-2.90
10598;BMP180;5346;48.766;8.674;2023-03-01T06:01:12;94295.00;;;-2.80
10598;BMP180;5346;48.766;8.674;2023-03-01T06:03:46;94336.00;;;-2.80
10598;BMP180;5346;48.766;8.674;2023-03-01T06:06:20;94348.00;;;-2.70
10598;BMP180;5346;48.766;8.674;2023-03-01T06:08:47;94313.00;;;-2.80
10598;BMP180;5346;48.766;8.674;2023-03-01T06:11:21;94348.00;;;-2.70
10598;BMP180;5346;48.766;8.674;2023-03-01T06:13:55;94324.00;;;-2.70
10598;BMP180;5346;48.766;8.674;2023-03-01T06:16:29;94338.00;;;-2.70
10598;BMP180;5346;48.766;8.674;2023-03-01T06:18:56;94308.00;;;-2.70
10598;BMP180;5346;48.766;8.674;2023-03-01T06:21:30;94323.00;;;-2.60
10598;BMP180;5346;48.766;8.674;2023-03-01T06:24:03;94309.00;;;-2.60
10598;BMP180;5346;48.766;8.674;2023-03-01T06:26:39;94349.00;;;-2.60
10598;BMP180;5346;48.766;8.674;2023-03-01T06:29:06;94275.00;;;-2.50
10598;BMP180;5346;48.766;8.674;2023-03-01T06:31:41;94297.00;;;-2.50
10598;BMP180;5346;48.766;8.674;2023-03-01T06:34:08;94330.00;;;-2.50
10598;BMP180;5346;48.766;8.674;2023-03-01T06:36:41;94286.00;;;-2.40
10598;BMP180;5346;48.766;8.674;2023-03-01T06:39:08;94309.00;;;-2.30
10598;BMP180;5346;48.766;8.674;2023-03-01T06:41:42;94291.00;;;-2.40
10598;BMP180;5346;48.766;8.674;2023-03-01T06:44:15;94280.00;;;-2.40
10598;BMP180;5346;48.766;8.674;2023-03-01T06:46:49;94307.00;;;-2.50
10598;BMP180;5346;48.766;8.674;2023-03-01T06:49:23;94325.00;;;-2.40
10598;BMP180;5346;48.766;8.674;2023-03-01T06:51:57;94301.00;;;-2.50
10598;BMP180;5346;48.766;8.674;2023-03-01T06:54:24;94288.00;;;-2.50
10598;BMP180;5346;48.766;8.674;2023-03-01T06:56:57;94342.00;;;-2.40
10598;BMP180;5346;48.766;8.674;2023-03-01T06:59:24;94323.00;;;-2.30
10598;BMP180;5346;48.766;8.674;2023-03-01T07:01:57;94333.00;;;-2.30
10598;BMP180;5346;48.766;8.674;2023-03-01T07:04:30;94294.00;;;-2.10
10598;BMP180;5346;48.766;8.674;2023-03-01T07:06:57;94290.00;;;-2.10
10598;BMP180;5346;48.766;8.674;2023-03-01T07:09:32;94310.00;;;-2.10
10598;BMP180;5346;48.766;8.674;2023-03-01T07:12:06;94278.00;;;-2.10
10598;BMP180;5346;48.766;8.674;2023-03-01T07:14:33;94309.00;;;-2.00
10598;BMP180;5346;48.766;8.674;2023-03-01T07:17:00;94277.00;;;-1.90
10598;BMP180;5346;48.766;8.674;2023-03-01T07:19:34;94303.00;;;-1.80
10598;BMP180;5346;48.766;8.674;2023-03-01T07:22:07;94260.00;;;-1.70
10598;BMP180;5346;48.766;8.674;2023-03-01T07:24:43;94259.00;;;-1.50
10598;BMP180;5346;48.766;8.674;2023-03-01T07:27:10;94266.00;;;-1.40
10598;BMP180;5346;48.766;8.674;2023-03-01T07:29:44;94238.00;;;-1.30
10598;BMP180;5346;48.766;8.674;2023-03-01T07:32:11;94254.00;;;-1.10
10598;BMP180;5346;48.766;8.674;2023-03-01T07:34:45;94300.00;;;-0.90
10598;BMP180;5346;48.766;8.674;2023-03-01T07:37:12;94296.00;;;-0.70
10598;BMP180;5346;48.766;8.674;2023-03-01T07:39:45;94260.00;;;-0.80
10598;BMP180;5346;48.766;8.674;2023-03-01T07:42:18;94269.00;;;-0.90
10598;BMP180;5346;48.766;8.674;2023-03-01T07:44:52;94256.00;;;-0.30
10598;BMP180;5346;48.766;8.674;2023-03-01T07:47:19;94277.00;;;0.20
10598;BMP180;5346;48.766;8.674;2023-03-01T07:49:59;94236.00;;;0.40
10598;BMP180;5346;48.766;8.674;2023-03-01T07:52:28;94288.00;;;0.60
10598;BMP180;5346;48.766;8.674;2023-03-01T07:55:01;94230.00;;;0.30
10598;BMP180;5346;48.766;8.674;2023-03-01T07:57:34;94245.00;;;0.30
10598;BMP180;5346;48.766;8.674;2023-03-01T08:00:01;94236.00;;;0.30
10598;BMP180;5346;48.766;8.674;2023-03-01T08:02:34;94301.00;;;0.50
10598;BMP180;5346;48.766;8.674;2023-03-01T08:05:09;94291.00;;;0.40
10598;BMP180;5346;48.766;8.674;2023-03-01T08:07:37;94271.00;;;1.10
10598;BMP180;5346;48.766;8.674;2023-03-01T08:10:10;94253.00;;;1.60
10598;BMP180;5346;48.766;8.674;2023-03-01T08:12:37;94253.00;;;1.60
10598;BMP180;5346;48.766;8.674;2023-03-01T08:15:11;94275.00;;;1.70
10598;BMP180;5346;48.766;8.674;2023-03-01T08:17:45;94241.00;;;1.70
10598;BMP180;5346;48.766;8.674;2023-03-01T08:20:19;94261.00;;;1.40
10598;BMP180;5346;48.766;8.674;2023-03-01T08:22:53;94281.00;;;1.60
10598;BMP180;5346;48.766;8.674;2023-03-01T08:25:27;94270.00;;;1.80
10598;BMP180;5346;48.766;8.674;2023-03-01T08:28:01;94239.00;;;1.80
10598;BMP180;5346;48.766;8.674;2023-03-01T08:30:36;94248.00;;;1.60
10598;BMP180;5346;48.766;8.674;2023-03-01T08:33:10;94251.00;;;2.00
10598;BMP180;5346;48.766;8.674;2023-03-01T08:35:44;94251.00;;;2.30
10598;BMP180;5346;48.766;8.674;2023-03-01T08:38:17;94277.00;;;2.30
10598;BMP180;5346;48.766;8.674;2023-03-01T08:40:51;94251.00;;;2.30
10598;BMP180;5346;48.766;8.674;2023-03-01T08:43:24;94208.00;;;2.40
10598;BMP180;5346;48.766;8.674;2023-03-01T08:45:52;94214.00;;;2.60
10598;BMP180;5346;48.766;8.674;2023-03-01T08:48:27;94228.00;;;2.60
10598;BMP180;5346;48.766;8.674;2023-03-01T08:51:18;94276.00;;;2.80
10598;BMP180;5346;48.766;8.674;2023-03-01T08:53:58;94265.00;;;3.70
10598;BMP180;5346;48.766;8.674;2023-03-01T08:56:25;94227.00;;;4.00
10598;BMP180;5346;48.766;8.674;2023-03-01T08:58:59;94255.00;;;3.70
10598;BMP180;5346;48.766;8.674;2023-03-01T09:01:33;94216.00;;;4.20
10598;BMP180;5346;48.766;8.674;2023-03-01T09:04:06;94255.00;;;4.30
10598;BMP180;5346;48.766;8.674;2023-03-01T09:06:34;94248.00;;;4.40
10598;BMP180;5346;48.766;8.674;2023-03-01T09:09:17;94263.00;;;4.50
10598;BMP180;5346;48.766;8.674;2023-03-01T09:11:45;94250.00;;;4.50
10598;BMP180;5346;48.766;8.674;2023-03-01T09:14:19;94252.00;;;4.80
10598;BMP180;5346;48.766;8.674;2023-03-01T09:16:46;94217.00;;;4.40
10598;BMP180;5346;48.766;8.674;2023-03-01T09:19:20;94244.00;;;4.30
10598;BMP180;5346;48.766;8.674;2023-03-01T09:21:54;94213.00;;;4.50
10598;BMP180;5346;48.766;8.674;2023-03-01T09:24:24;94238.00;;;4.40
10598;BMP180;5346;48.766;8.674;2023-03-01T09:26:57;94221.00;;;4.70
10598;BMP180;5346;48.766;8.674;2023-03-01T09:29:24;94225.00;;;4.70
10598;BMP180;5346;48.766;8.674;2023-03-01T09:31:59;94210.00;;;5.30
10598;BMP180;5346;48.766;8.674;2023-03-01T09:34:27;94230.00;;;4.80
10598;BMP180;5346;48.766;8.674;2023-03-01T09:37:01;94209.00;;;5.30
10598;BMP180;5346;48.766;8.674;2023-03-01T09:39:29;94215.00;;;4.30
10598;BMP180;5346;48.766;8.674;2023-03-01T09:42:03;94191.00;;;5.50
10598;BMP180;5346;48.766;8.674;2023-03-01T09:45:02;94222.00;;;5.80
10598;BMP180;5346;48.766;8.674;2023-03-01T09:47:36;94209.00;;;5.80
10598;BMP180;5346;48.766;8.674;2023-03-01T09:50:40;94188.00;;;5.50
10598;BMP180;5346;48.766;8.674;2023-03-01T09:53:28;94190.00;;;5.50
10598;BMP180;5346;48.766;8.674;2023-03-01T09:56:19;94220.00;;;5.30
10598;BMP180;5346;48.766;8.674;2023-03-01T10:02:00;94180.00;;;6.50
10598;BMP180;5346;48.766;8.674;2023-03-01T10:10:46;94220.00;;;7.00
10598;BMP180;5346;48.766;8.674;2023-03-01T10:13:21;94216.00;;;6.20
10598;BMP180;5346;48.766;8.674;2023-03-01T10:16:09;94151.00;;;6.10
10598;BMP180;5346;48.766;8.674;2023-03-01T10:18:41;94169.00;;;5.80
10598;BMP180;5346;48.766;8.674;2023-03-01T10:21:19;94214.00;;;6.40
10598;BMP180;5346;48.766;8.674;2023-03-01T10:24:05;94208.00;;;6.00
10598;BMP180;5346;48.766;8.674;2023-03-01T10:26:57;94199.00;;;7.00
10598;BMP180;5346;48.766;8.674;2023-03-01T10:29:48;94172.00;;;7.40
10598;BMP180;5346;48.766;8.674;2023-03-01T10:32:26;94203.00;;;6.70
10598;BMP180;5346;48.766;8.674;2023-03-01T10:35:23;94200.00;;;6.80
10598;BMP180;5346;48.766;8.674;2023-03-01T10:38:09;94173.00;;;7.10
10598;BMP180;5346;48.766;8.674;2023-03-01T10:43:50;94217.00;;;7.90
10598;BMP180;5346;48.766;8.674;2023-03-01T10:46:31;94207.00;;;7.20
10598;BMP180;5346;48.766;8.674;2023-03-01T10:49:22;94209.00;;;7.70
10598;BMP180;5346;48.766;8.674;2023-03-01T10:52:18;94173.00;;;7.80
10598;BMP180;5346;48.766;8.674;2023-03-01T10:57:46;94208.00;;;8.10
10598;BMP180;5346;48.766;8.674;2023-03-01T11:00:28;94196.00;;;7.80
10598;BMP180;5346;48.766;8.674;2023-03-01T11:03:10;94195.00;;;8.80
10598;BMP180;5346;48.766;8.674;2023-03-01T11:09:22;94186.00;;;7.80
10598;BMP180;5346;48.766;8.674;2023-03-01T11:12:00;94192.00;;;8.40
10598;BMP180;5346;48.766;8.674;2023-03-01T11:14:46;94186.00;;;9.20
10598;BMP180;5346;48.766;8.674;2023-03-01T11:17:30;94033.00;;;9.00
10598;BMP180;5346;48.766;8.674;2023-03-01T11:20:36;94166.00;;;9.50
10598;BMP180;5346;48.766;8.674;2023-03-01T11:23:16;94119.00;;;9.20
10598;BMP180;5346;48.766;8.674;2023-03-01T11:26:02;94153.00;;;8.00
10598;BMP180;5346;48.766;8.674;2023-03-01T11:32:15;94106.00;;;8.60
10598;BMP180;5346;48.766;8.674;2023-03-01T11:34:50;94125.00;;;9.10
10598;BMP180;5346;48.766;8.674;2023-03-01T11:38:16;94163.00;;;8.50
10598;BMP180;5346;48.766;8.674;2023-03-01T11:44:02;94132.00;;;8.60
10598;BMP180;5346;48.766;8.674;2023-03-01T11:50:12;94155.00;;;8.90
10598;BMP180;5346;48.766;8.674;2023-03-01T12:33:51;94053.00;;;10.10
10598;BMP180;5346;48.766;8.674;2023-03-01T12:43:01;94081.00;;;10.70
10598;BMP180;5346;48.766;8.674;2023-03-01T12:49:12;94064.00;;;11.10
10598;BMP180;5346;48.766;8.674;2023-03-01T12:52:12;94028.00;;;11.50
10598;BMP180;5346;48.766;8.674;2023-03-01T12:54:41;94086.00;;;11.70
10598;BMP180;5346;48.766;8.674;2023-03-01T12:57:33;94040.00;;;12.00
10598;BMP180;5346;48.766;8.674;2023-03-01T13:03:36;94059.00;;;11.70
10598;BMP180;5346;48.766;8.674;2023-03-01T13:06:50;94053.00;;;12.70
10598;BMP180;5346;48.766;8.674;2023-03-01T13:12:43;94061.00;;;12.00
10598;BMP180;5346;48.766;8.674;2023-03-01T13:18:49;94052.00;;;12.30
10598;BMP180;5346;48.766;8.674;2023-03-01T13:21:00;94051.00;;;11.20
10598;BMP180;5346;48.766;8.674;2023-03-01T13:23:37;94043.00;;;11.40
10598;BMP180;5346;48.766;8.674;2023-03-01T13:26:14;94047.00;;;11.20
10598;BMP180;5346;48.766;8.674;2023-03-01T13:28:54;94039.00;;;10.70
10598;BMP180;5346;48.766;8.674;2023-03-01T13:34:04;94040.00;;;11.00
10598;BMP180;5346;48.766;8.674;2023-03-01T13:36:52;94041.00;;;11.50
10598;BMP180;5346;48.766;8.674;2023-03-01T13:39:32;94039.00;;;11.70
10598;BMP180;5346;48.766;8.674;2023-03-01T13:42:39;94054.00;;;10.60
10598;BMP180;5346;48.766;8.674;2023-03-01T13:45:44;94052.00;;;12.00
10598;BMP180;5346;48.766;8.674;2023-03-01T13:48:25;94046.00;;;12.20
10598;BMP180;5346;48.766;8.674;2023-03-01T13:51:12;94040.00;;;11.80
10598;BMP180;5346;48.766;8.674;2023-03-01T13:53:56;94049.00;;;11.60
10598;BMP180;5346;48.766;8.674;2023-03-01T13:56:37;94041.00;;;11.90
10598;BMP180;5346;48.766;8.674;2023-03-01T13:59:12;94042.00;;;11.80
10598;BMP180;5346;48.766;8.674;2023-03-01T14:02:00;94049.00;;;11.10
10598;BMP180;5346;48.766;8.674;2023-03-01T14:04:35;94051.00;;;10.70
10598;BMP180;5346;48.766;8.674;2023-03-01T14:07:20;94052.00;;;10.90
10598;BMP180;5346;48.766;8.674;2023-03-01T14:09:54;94046.00;;;11.40
10598;BMP180;5346;48.766;8.674;2023-03-01T14:13:00;94056.00;;;11.10
10598;BMP180;5346;48.766;8.674;2023-03-01T14:21:31;94053.00;;;10.80
10598;BMP180;5346;48.766;8.674;2023-03-01T14:24:06;94039.00;;;10.60
10598;BMP180;5346;48.766;8.674;2023-03-01T14:26:49;94046.00;;;10.60
10598;BMP180;5346;48.766;8.674;2023-03-01T14:29:36;94055.00;;;9.10
10598;BMP180;5346;48.766;8.674;2023-03-01T14:32:22;94053.00;;;9.60
10598;BMP180;5346;48.766;8.674;2023-03-01T14:34:59;94050.00;;;10.10
10598;BMP180;5346;48.766;8.674;2023-03-01T14:37:34;94052.00;;;10.20
10598;BMP180;5346;48.766;8.674;2023-03-01T14:40:29;94055.00;;;9.70
10598;BMP180;5346;48.766;8.674;2023-03-01T14:43:20;94060.00;;;8.90
10598;BMP180;5346;48.766;8.674;2023-03-01T14:45:50;94072.00;;;8.70
10598;BMP180;5346;48.766;8.674;2023-03-01T14:48:25;94067.00;;;8.80
10598;BMP180;5346;48.766;8.674;2023-03-01T14:51:00;94071.00;;;8.50
10598;BMP180;5346;48.766;8.674;2023-03-01T14:53:35;94068.00;;;8.70
10598;BMP180;5346;48.766;8.674;2023-03-01T14:56:17;94081.00;;;8.90
10598;BMP180;5346;48.766;8.674;2023-03-01T14:58:53;94090.00;;;9.10
10598;BMP180;5346;48.766;8.674;2023-03-01T15:01:21;94091.00;;;8.90
10598;BMP180;5346;48.766;8.674;2023-03-01T15:03:56;94090.00;;;8.80
10598;BMP180;5346;48.766;8.674;2023-03-01T15:06:31;94078.00;;;8.30
10598;BMP180;5346;48.766;8.674;2023-03-01T15:09:05;94092.00;;;8.20
10598;BMP180;5346;48.766;8.674;2023-03-01T15:11:33;94093.00;;;7.80
10598;BMP180;5346;48.766;8.674;2023-03-01T15:17:00;94090.00;;;7.30
10598;BMP180;5346;48.766;8.674;2023-03-01T15:19:34;94088.00;;;7.30
10598;BMP180;5346;48.766;8.674;2023-03-01T15:22:19;94082.00;;;7.20
10598;BMP180;5346;48.766;8.674;2023-03-01T15:25:18;94085.00;;;7.30
10598;BMP180;5346;48.766;8.674;2023-03-01T15:28:20;94080.00;;;6.00
10598;BMP180;5346;48.766;8.674;2023-03-01T15:31:23;94089.00;;;6.00
10598;BMP180;5346;48.766;8.674;2023-03-01T15:34:29;94082.00;;;6.40
10598;BMP180;5346;48.766;8.674;2023-03-01T15:37:46;94086.00;;;6.30
10598;BMP180;5346;48.766;8.674;2023-03-01T15:40:50;94079.00;;;7.00
10598;BMP180;5346;48.766;8.674;2023-03-01T15:43:43;94085.00;;;7.00
10598;BMP180;5346;48.766;8.674;2023-03-01T15:46:25;94092.00;;;6.20
10598;BMP180;5346;48.766;8.674;2023-03-01T15:49:19;94087.00;;;6.10
10598;BMP180;5346;48.766;8.674;2023-03-01T15:51:58;94101.00;;;6.00
10598;BMP180;5346;48.766;8.674;2023-03-01T15:54:32;94096.00;;;6.00
10598;BMP180;5346;48.766;8.674;2023-03-01T15:57:12;94091.00;;;5.70
10598;BMP180;5346;48.766;8.674;2023-03-01T15:59:45;94101.00;;;5.40
10598;BMP180;5346;48.766;8.674;2023-03-01T16:02:19;94106.00;;;4.50
10598;BMP180;5346;48.766;8.674;2023-03-01T16:08:17;94083.00;;;3.40
10598;BMP180;5346;48.766;8.674;2023-03-01T16:10:51;94072.00;;;3.30
10598;BMP180;5346;48.766;8.674;2023-03-01T16:13:30;94086.00;;;2.90
10598;BMP180;5346;48.766;8.674;2023-03-01T16:15:59;94075.00;;;2.80
10598;BMP180;5346;48.766;8.674;2023-03-01T16:18:37;94074.00;;;2.50
10598;BMP180;5346;48.766;8.674;2023-03-01T16:21:10;94075.00;;;2.40
10598;BMP180;5346;48.766;8.674;2023-03-01T16:23:45;94073.00;;;2.20
10598;BMP180;5346;48.766;8.674;2023-03-01T16:26:14;94079.00;;;2.20
10598;BMP180;5346;48.766;8.674;2023-03-01T16:28:48;94087.00;;;2.10
10598;BMP180;5346;48.766;8.674;2023-03-01T16:31:18;94082.00;;;2.00
10598;BMP180;5346;48.766;8.674;2023-03-01T16:33:47;94085.00;;;1.90
10598;BMP180;5346;48.766;8.674;2023-03-01T16:36:24;94070.00;;;1.90
10598;BMP180;5346;48.766;8.674;2023-03-01T16:38:52;94068.00;;;1.70
10598;BMP180;5346;48.766;8.674;2023-03-01T16:41:28;94070.00;;;1.70
10598;BMP180;5346;48.766;8.674;2023-03-01T16:43:56;94083.00;;;1.50
10598;BMP180;5346;48.766;8.674;2023-03-01T16:46:30;94094.00;;;1.40
10598;BMP180;5346;48.766;8.674;2023-03-01T16:48:58;94086.00;;;1.20
10598;BMP180;5346;48.766;8.674;2023-03-01T16:51:39;94094.00;;;1.20
10598;BMP180;5346;48.766;8.674;2023-03-01T16:54:06;94092.00;;;1.30
10598;BMP180;5346;48.766;8.674;2023-03-01T16:56:41;94095.00;;;1.00
10598;BMP180;5346;48.766;8.674;2023-03-01T16:59:16;94093.00;;;0.80
10598;BMP180;5346;48.766;8.674;2023-03-01T17:02:05;94087.00;;;0.80
10598;BMP180;5346;48.766;8.674;2023-03-01T17:05:02;94092.00;;;0.70
10598;BMP180;5346;48.766;8.674;2023-03-01T17:07:57;94093.00;;;0.80
10598;BMP180;5346;48.766;8.674;2023-03-01T17:10:53;94094.00;;;0.70
10598;BMP180;5346;48.766;8.674;2023-03-01T17:13:23;94094.00;;;0.70